sensor_id;sensor_type;location;lat;lon;timestamp;P1;durP1;ratioP1;P2;durP2;ratioP2
19846;SDS011;10084;50.518;8.588;2023-06-14T00:01:44;3.83;;;3.53;;
19846;SDS011;10084;50.518;8.588;2023-06-14T00:04:13;3.03;;;2.83;;
19846;SDS011;10084;50.518;8.588;2023-06-14T00:06:42;3.33;;;3.13;;
19846;SDS011;10084;50.518;8.588;2023-06-14T00:09:10;3.60;;;3.30;;
19846;SDS011;10084;50.518;8.588;2023-06-14T00:11:38;3.07;;;2.87;;
19846;SDS011;10084;50.518;8.588;2023-06-14T00:14:05;10.90;;;3.10;;
19846;SDS011;10084;50.518;8.588;2023-06-14T00:16:31;3.10;;;2.90;;
19846;SDS011;10084;50.518;8.588;2023-06-14T00:18:59;4.00;;;3.03;;
19846;SDS011;10084;50.518;8.588;2023-06-14T00:21:25;9.00;;;3.63;;
19846;SDS011;10084;50.518;8.588;2023-06-14T00:23:53;3.37;;;3.17;;
19846;SDS011;10084;50.518;8.588;2023-06-14T00:26:19;3.80;;;3.33;;
19846;SDS011;10084;50.518;8.588;2023-06-14T00:28:45;3.00;;;2.80;;
19846;SDS011;10084;50.518;8.588;2023-06-14T00:31:11;3.23;;;3.03;;
19846;SDS011;10084;50.518;8.588;2023-06-14T00:33:36;3.03;;;2.83;;
19846;SDS011;10084;50.518;8.588;2023-06-14T00:36:04;4.27;;;3.87;;
19846;SDS011;10084;50.518;8.588;2023-06-14T00:38:29;3.70;;;3.40;;
19846;SDS011;10084;50.518;8.588;2023-06-14T00:40:55;3.80;;;3.50;;
19846;SDS011;10084;50.518;8.588;2023-06-14T00:43:21;3.20;;;3.00;;
19846;SDS011;10084;50.518;8.588;2023-06-14T00:45:46;3.20;;;3.00;;
19846;SDS011;10084;50.518;8.588;2023-06-14T00:48:14;3.40;;;3.20;;
19846;SDS011;10084;50.518;8.588;2023-06-14T00:50:42;3.40;;;3.10;;
19846;SDS011;10084;50.518;8.588;2023-06-14T00:53:11;3.80;;;3.50;;
19846;SDS011;10084;50.518;8.588;2023-06-14T00:55:37;3.40;;;3.10;;
19846;SDS011;10084;50.518;8.588;2023-06-14T00:58:03;6.13;;;2.90;;
19846;SDS011;10084;50.518;8.588;2023-06-14T01:00:29;3.50;;;3.23;;
19846;SDS011;10084;50.518;8.588;2023-06-14T01:02:55;6.53;;;3.70;;
19846;SDS011;10084;50.518;8.588;2023-06-14T01:05:22;3.33;;;3.10;;
19846;SDS011;10084;50.518;8.588;2023-06-14T01:07:55;4.73;;;3.33;;
19846;SDS011;10084;50.518;8.588;2023-06-14T01:10:45;3.27;;;3.07;;
19846;SDS011;10084;50.518;8.588;2023-06-14T01:15:49;3.23;;;2.93;;
19846;SDS011;10084;50.518;8.588;2023-06-14T01:18:16;3.73;;;3.43;;
19846;SDS011;10084;50.518;8.588;2023-06-14T01:20:43;2.97;;;2.77;;
19846;SDS011;10084;50.518;8.588;2023-06-14T01:23:19;3.10;;;2.90;;
19846;SDS011;10084;50.518;8.588;2023-06-14T01:25:46;3.23;;;2.93;;
19846;SDS011;10084;50.518;8.588;2023-06-14T01:28:13;3.20;;;3.00;;
19846;SDS011;10084;50.518;8.588;2023-06-14T01:30:42;3.47;;;2.57;;
19846;SDS011;10084;50.518;8.588;2023-06-14T01:33:17;2.80;;;2.60;;
19846;SDS011;10084;50.518;8.588;2023-06-14T01:35:49;4.63;;;2.90;;
19846;SDS011;10084;50.518;8.588;2023-06-14T01:38:16;2.90;;;2.70;;
19846;SDS011;10084;50.518;8.588;2023-06-14T01:40:44;3.23;;;2.90;;
19846;SDS011;10084;50.518;8.588;2023-06-14T01:43:10;3.47;;;3.20;;
19846;SDS011;10084;50.518;8.588;2023-06-14T01:45:38;4.77;;;2.80;;
19846;SDS011;10084;50.518;8.588;2023-06-14T01:48:07;2.43;;;2.33;;
19846;SDS011;10084;50.518;8.588;2023-06-14T01:50:33;3.13;;;2.83;;
19846;SDS011;10084;50.518;8.588;2023-06-14T01:52:59;3.10;;;2.90;;
19846;SDS011;10084;50.518;8.588;2023-06-14T01:55:25;3.33;;;3.03;;
19846;SDS011;10084;50.518;8.588;2023-06-14T01:57:51;3.03;;;2.83;;
19846;SDS011;10084;50.518;8.588;2023-06-14T02:00:18;3.43;;;3.23;;
19846;SDS011;10084;50.518;8.588;2023-06-14T02:02:44;2.67;;;2.50;;
19846;SDS011;10084;50.518;8.588;2023-06-14T02:05:11;3.23;;;2.93;;
19846;SDS011;10084;50.518;8.588;2023-06-14T02:07:40;3.27;;;2.33;;
19846;SDS011;10084;50.518;8.588;2023-06-14T02:10:06;2.90;;;2.70;;
19846;SDS011;10084;50.518;8.588;2023-06-14T02:12:32;5.80;;;3.30;;
19846;SDS011;10084;50.518;8.588;2023-06-14T02:14:58;3.37;;;2.50;;
19846;SDS011;10084;50.518;8.588;2023-06-14T02:17:23;3.33;;;3.03;;
19846;SDS011;10084;50.518;8.588;2023-06-14T02:19:50;2.80;;;2.60;;
19846;SDS011;10084;50.518;8.588;2023-06-14T02:22:16;2.83;;;2.63;;
19846;SDS011;10084;50.518;8.588;2023-06-14T02:24:42;2.33;;;2.23;;
19846;SDS011;10084;50.518;8.588;2023-06-14T02:27:08;2.90;;;2.70;;
19846;SDS011;10084;50.518;8.588;2023-06-14T02:29:36;2.57;;;2.37;;
19846;SDS011;10084;50.518;8.588;2023-06-14T02:32:03;3.10;;;2.90;;
19846;SDS011;10084;50.518;8.588;2023-06-14T02:34:30;2.80;;;2.60;;
19846;SDS011;10084;50.518;8.588;2023-06-14T02:36:56;3.53;;;2.43;;
19846;SDS011;10084;50.518;8.588;2023-06-14T02:39:22;2.67;;;2.53;;
19846;SDS011;10084;50.518;8.588;2023-06-14T02:41:48;2.57;;;2.37;;
19846;SDS011;10084;50.518;8.588;2023-06-14T02:44:17;3.13;;;2.93;;
19846;SDS011;10084;50.518;8.588;2023-06-14T02:46:43;2.93;;;2.73;;
19846;SDS011;10084;50.518;8.588;2023-06-14T02:49:10;2.97;;;2.77;;
19846;SDS011;10084;50.518;8.588;2023-06-14T02:51:37;2.80;;;2.60;;
19846;SDS011;10084;50.518;8.588;2023-06-14T02:54:03;2.50;;;2.30;;
19846;SDS011;10084;50.518;8.588;2023-06-14T02:56:29;3.07;;;2.87;;
19846;SDS011;10084;50.518;8.588;2023-06-14T02:58:56;2.43;;;2.30;;
19846;SDS011;10084;50.518;8.588;2023-06-14T03:01:22;2.10;;;2.00;;
19846;SDS011;10084;50.518;8.588;2023-06-14T03:04:02;2.40;;;2.20;;
19846;SDS011;10084;50.518;8.588;2023-06-14T03:06:31;4.17;;;2.50;;
19846;SDS011;10084;50.518;8.588;2023-06-14T03:08:58;2.17;;;1.97;;
19846;SDS011;10084;50.518;8.588;2023-06-14T03:11:30;2.60;;;2.40;;
19846;SDS011;10084;50.518;8.588;2023-06-14T03:13:57;2.33;;;2.13;;
19846;SDS011;10084;50.518;8.588;2023-06-14T03:16:25;2.47;;;2.13;;
19846;SDS011;10084;50.518;8.588;2023-06-14T03:18:53;5.87;;;2.17;;
19846;SDS011;10084;50.518;8.588;2023-06-14T03:21:19;2.77;;;2.57;;
19846;SDS011;10084;50.518;8.588;2023-06-14T03:23:45;4.83;;;2.80;;
19846;SDS011;10084;50.518;8.588;2023-06-14T03:26:12;2.40;;;2.20;;
19846;SDS011;10084;50.518;8.588;2023-06-14T03:28:39;2.53;;;2.27;;
19846;SDS011;10084;50.518;8.588;2023-06-14T03:31:08;2.60;;;2.37;;
19846;SDS011;10084;50.518;8.588;2023-06-14T03:33:34;3.20;;;2.90;;
19846;SDS011;10084;50.518;8.588;2023-06-14T03:36:01;3.37;;;2.60;;
19846;SDS011;10084;50.518;8.588;2023-06-14T03:38:28;6.50;;;2.60;;
19846;SDS011;10084;50.518;8.588;2023-06-14T03:40:54;5.17;;;2.60;;
19846;SDS011;10084;50.518;8.588;2023-06-14T03:43:20;3.83;;;2.17;;
19846;SDS011;10084;50.518;8.588;2023-06-14T03:45:46;2.33;;;2.20;;
19846;SDS011;10084;50.518;8.588;2023-06-14T03:48:13;2.73;;;2.53;;
19846;SDS011;10084;50.518;8.588;2023-06-14T03:50:38;2.87;;;2.67;;
19846;SDS011;10084;50.518;8.588;2023-06-14T03:53:05;3.37;;;2.67;;
19846;SDS011;10084;50.518;8.588;2023-06-14T03:55:31;2.33;;;2.13;;
19846;SDS011;10084;50.518;8.588;2023-06-14T03:57:58;2.67;;;2.33;;
19846;SDS011;10084;50.518;8.588;2023-06-14T04:00:24;2.77;;;2.57;;
19846;SDS011;10084;50.518;8.588;2023-06-14T04:02:51;2.17;;;1.97;;
19846;SDS011;10084;50.518;8.588;2023-06-14T04:05:17;2.77;;;2.40;;
19846;SDS011;10084;50.518;8.588;2023-06-14T04:07:47;3.67;;;2.37;;
19846;SDS011;10084;50.518;8.588;2023-06-14T04:10:14;2.53;;;2.30;;
19846;SDS011;10084;50.518;8.588;2023-06-14T04:12:41;3.00;;;2.73;;
19846;SDS011;10084;50.518;8.588;2023-06-14T04:15:07;6.90;;;2.60;;
19846;SDS011;10084;50.518;8.588;2023-06-14T04:17:34;3.63;;;2.47;;
19846;SDS011;10084;50.518;8.588;2023-06-14T04:20:01;7.93;;;1.97;;
19846;SDS011;10084;50.518;8.588;2023-06-14T04:22:30;2.97;;;2.77;;
19846;SDS011;10084;50.518;8.588;2023-06-14T04:24:57;2.37;;;2.17;;
19846;SDS011;10084;50.518;8.588;2023-06-14T04:27:25;3.17;;;2.90;;
19846;SDS011;10084;50.518;8.588;2023-06-14T04:29:53;5.87;;;2.90;;
19846;SDS011;10084;50.518;8.588;2023-06-14T04:32:23;5.17;;;2.67;;
19846;SDS011;10084;50.518;8.588;2023-06-14T04:34:55;4.00;;;2.27;;
19846;SDS011;10084;50.518;8.588;2023-06-14T04:37:22;4.50;;;2.70;;
19846;SDS011;10084;50.518;8.588;2023-06-14T04:39:49;2.10;;;2.00;;
19846;SDS011;10084;50.518;8.588;2023-06-14T04:42:15;2.90;;;2.70;;
19846;SDS011;10084;50.518;8.588;2023-06-14T04:44:42;3.30;;;2.40;;
19846;SDS011;10084;50.518;8.588;2023-06-14T04:47:09;2.70;;;2.37;;
19846;SDS011;10084;50.518;8.588;2023-06-14T04:49:37;2.50;;;2.30;;
19846;SDS011;10084;50.518;8.588;2023-06-14T04:52:05;2.23;;;2.13;;
19846;SDS011;10084;50.518;8.588;2023-06-14T04:54:37;2.60;;;2.40;;
19846;SDS011;10084;50.518;8.588;2023-06-14T04:57:04;4.30;;;2.20;;
19846;SDS011;10084;50.518;8.588;2023-06-14T04:59:31;2.23;;;2.03;;
19846;SDS011;10084;50.518;8.588;2023-06-14T05:01:58;5.13;;;2.70;;
19846;SDS011;10084;50.518;8.588;2023-06-14T05:04:25;2.40;;;2.20;;
19846;SDS011;10084;50.518;8.588;2023-06-14T05:06:52;2.23;;;2.03;;
19846;SDS011;10084;50.518;8.588;2023-06-14T05:09:20;2.43;;;2.23;;
19846;SDS011;10084;50.518;8.588;2023-06-14T05:11:46;3.70;;;2.43;;
19846;SDS011;10084;50.518;8.588;2023-06-14T05:14:13;2.53;;;2.30;;
19846;SDS011;10084;50.518;8.588;2023-06-14T05:16:39;4.30;;;1.97;;
19846;SDS011;10084;50.518;8.588;2023-06-14T05:19:06;3.13;;;2.20;;
19846;SDS011;10084;50.518;8.588;2023-06-14T05:21:32;2.30;;;1.97;;
19846;SDS011;10084;50.518;8.588;2023-06-14T05:24:00;1.80;;;1.70;;
19846;SDS011;10084;50.518;8.588;2023-06-14T05:26:26;4.30;;;1.90;;
19846;SDS011;10084;50.518;8.588;2023-06-14T05:28:55;5.57;;;2.10;;
19846;SDS011;10084;50.518;8.588;2023-06-14T05:31:24;2.17;;;1.87;;
19846;SDS011;10084;50.518;8.588;2023-06-14T05:33:51;1.83;;;1.73;;
19846;SDS011;10084;50.518;8.588;2023-06-14T05:36:17;2.10;;;1.90;;
19846;SDS011;10084;50.518;8.588;2023-06-14T05:38:43;4.80;;;2.00;;
19846;SDS011;10084;50.518;8.588;2023-06-14T05:41:08;3.50;;;1.80;;
19846;SDS011;10084;50.518;8.588;2023-06-14T05:43:34;2.50;;;1.60;;
19846;SDS011;10084;50.518;8.588;2023-06-14T05:46:03;2.20;;;1.97;;
19846;SDS011;10084;50.518;8.588;2023-06-14T05:48:32;4.37;;;1.57;;
19846;SDS011;10084;50.518;8.588;2023-06-14T05:50:58;1.93;;;1.50;;
19846;SDS011;10084;50.518;8.588;2023-06-14T05:53:24;1.83;;;1.73;;
19846;SDS011;10084;50.518;8.588;2023-06-14T05:55:50;7.13;;;1.83;;
19846;SDS011;10084;50.518;8.588;2023-06-14T05:58:20;2.03;;;1.87;;
19846;SDS011;10084;50.518;8.588;2023-06-14T06:00:46;1.50;;;1.40;;
19846;SDS011;10084;50.518;8.588;2023-06-14T06:03:12;3.17;;;1.53;;
19846;SDS011;10084;50.518;8.588;2023-06-14T06:05:38;2.77;;;1.47;;
19846;SDS011;10084;50.518;8.588;2023-06-14T06:08:04;1.93;;;1.50;;
19846;SDS011;10084;50.518;8.588;2023-06-14T06:10:30;1.30;;;1.20;;
19846;SDS011;10084;50.518;8.588;2023-06-14T06:12:55;1.73;;;1.63;;
19846;SDS011;10084;50.518;8.588;2023-06-14T06:15:21;1.33;;;1.23;;
19846;SDS011;10084;50.518;8.588;2023-06-14T06:17:47;3.47;;;1.70;;
19846;SDS011;10084;50.518;8.588;2023-06-14T06:20:12;1.20;;;1.10;;
19846;SDS011;10084;50.518;8.588;2023-06-14T06:22:38;1.30;;;1.20;;
19846;SDS011;10084;50.518;8.588;2023-06-14T06:25:04;2.57;;;1.53;;
19846;SDS011;10084;50.518;8.588;2023-06-14T06:27:31;1.93;;;1.37;;
19846;SDS011;10084;50.518;8.588;2023-06-14T06:29:58;6.30;;;1.47;;
19846;SDS011;10084;50.518;8.588;2023-06-14T06:32:23;1.20;;;1.10;;
19846;SDS011;10084;50.518;8.588;2023-06-14T06:34:49;1.60;;;1.30;;
19846;SDS011;10084;50.518;8.588;2023-06-14T06:37:15;1.00;;;1.00;;
19846;SDS011;10084;50.518;8.588;2023-06-14T06:39:41;1.00;;;1.00;;
19846;SDS011;10084;50.518;8.588;2023-06-14T06:42:07;3.27;;;1.37;;
19846;SDS011;10084;50.518;8.588;2023-06-14T06:44:36;1.30;;;1.20;;
19846;SDS011;10084;50.518;8.588;2023-06-14T06:47:01;1.20;;;1.10;;
19846;SDS011;10084;50.518;8.588;2023-06-14T06:49:27;1.13;;;1.03;;
19846;SDS011;10084;50.518;8.588;2023-06-14T06:52:00;1.17;;;1.07;;
19846;SDS011;10084;50.518;8.588;2023-06-14T06:54:27;1.30;;;1.20;;
19846;SDS011;10084;50.518;8.588;2023-06-14T06:56:53;1.97;;;1.20;;
19846;SDS011;10084;50.518;8.588;2023-06-14T06:59:18;1.17;;;1.17;;
19846;SDS011;10084;50.518;8.588;2023-06-14T07:01:45;4.20;;;1.37;;
19846;SDS011;10084;50.518;8.588;2023-06-14T07:04:11;1.57;;;1.30;;
19846;SDS011;10084;50.518;8.588;2023-06-14T07:06:38;2.53;;;1.30;;
19846;SDS011;10084;50.518;8.588;2023-06-14T07:09:03;6.87;;;1.17;;
19846;SDS011;10084;50.518;8.588;2023-06-14T07:11:33;1.30;;;1.20;;
19846;SDS011;10084;50.518;8.588;2023-06-14T07:13:59;4.73;;;1.33;;
19846;SDS011;10084;50.518;8.588;2023-06-14T07:16:24;1.00;;;0.90;;
19846;SDS011;10084;50.518;8.588;2023-06-14T07:18:51;2.63;;;1.10;;
19846;SDS011;10084;50.518;8.588;2023-06-14T07:21:17;1.40;;;1.30;;
19846;SDS011;10084;50.518;8.588;2023-06-14T07:23:43;1.97;;;1.50;;
19846;SDS011;10084;50.518;8.588;2023-06-14T07:26:09;1.30;;;1.20;;
19846;SDS011;10084;50.518;8.588;2023-06-14T07:28:34;4.70;;;1.10;;
19846;SDS011;10084;50.518;8.588;2023-06-14T07:31:01;1.20;;;1.10;;
19846;SDS011;10084;50.518;8.588;2023-06-14T07:33:27;5.40;;;1.20;;
19846;SDS011;10084;50.518;8.588;2023-06-14T07:35:53;3.07;;;0.97;;
19846;SDS011;10084;50.518;8.588;2023-06-14T07:38:19;1.10;;;0.97;;
19846;SDS011;10084;50.518;8.588;2023-06-14T07:40:45;2.70;;;1.00;;
19846;SDS011;10084;50.518;8.588;2023-06-14T07:43:10;0.63;;;0.63;;
19846;SDS011;10084;50.518;8.588;2023-06-14T07:45:36;1.27;;;0.93;;
19846;SDS011;10084;50.518;8.588;2023-06-14T07:48:02;1.07;;;0.93;;
19846;SDS011;10084;50.518;8.588;2023-06-14T07:50:28;2.03;;;0.73;;
19846;SDS011;10084;50.518;8.588;2023-06-14T07:52:54;0.63;;;0.63;;
19846;SDS011;10084;50.518;8.588;2023-06-14T07:55:20;0.80;;;0.80;;
19846;SDS011;10084;50.518;8.588;2023-06-14T07:57:46;2.20;;;1.27;;
19846;SDS011;10084;50.518;8.588;2023-06-14T08:00:11;0.90;;;0.90;;
19846;SDS011;10084;50.518;8.588;2023-06-14T08:02:44;0.87;;;0.87;;
19846;SDS011;10084;50.518;8.588;2023-06-14T08:05:10;1.20;;;0.87;;
19846;SDS011;10084;50.518;8.588;2023-06-14T08:07:37;1.03;;;0.90;;
19846;SDS011;10084;50.518;8.588;2023-06-14T08:10:06;2.80;;;0.70;;
19846;SDS011;10084;50.518;8.588;2023-06-14T08:12:32;0.73;;;0.73;;
19846;SDS011;10084;50.518;8.588;2023-06-14T08:14:59;0.60;;;0.60;;
19846;SDS011;10084;50.518;8.588;2023-06-14T08:17:24;0.97;;;0.87;;
19846;SDS011;10084;50.518;8.588;2023-06-14T08:19:50;0.60;;;0.60;;
19846;SDS011;10084;50.518;8.588;2023-06-14T08:22:16;0.73;;;0.73;;
19846;SDS011;10084;50.518;8.588;2023-06-14T08:24:43;2.10;;;0.80;;
19846;SDS011;10084;50.518;8.588;2023-06-14T08:27:09;2.70;;;1.30;;
19846;SDS011;10084;50.518;8.588;2023-06-14T08:29:36;1.10;;;1.00;;
19846;SDS011;10084;50.518;8.588;2023-06-14T08:32:04;1.23;;;1.03;;
19846;SDS011;10084;50.518;8.588;2023-06-14T08:34:30;1.30;;;0.80;;
19846;SDS011;10084;50.518;8.588;2023-06-14T08:36:55;1.10;;;1.00;;
19846;SDS011;10084;50.518;8.588;2023-06-14T08:39:21;0.80;;;0.80;;
19846;SDS011;10084;50.518;8.588;2023-06-14T08:41:47;1.67;;;1.10;;
19846;SDS011;10084;50.518;8.588;2023-06-14T08:44:14;2.20;;;1.07;;
19846;SDS011;10084;50.518;8.588;2023-06-14T08:46:41;1.37;;;1.27;;
19846;SDS011;10084;50.518;8.588;2023-06-14T08:49:07;3.00;;;0.93;;
19846;SDS011;10084;50.518;8.588;2023-06-14T08:51:36;1.53;;;0.80;;
19846;SDS011;10084;50.518;8.588;2023-06-14T08:54:03;3.33;;;0.90;;
19846;SDS011;10084;50.518;8.588;2023-06-14T08:56:29;0.83;;;0.83;;
19846;SDS011;10084;50.518;8.588;2023-06-14T08:58:56;0.80;;;0.80;;
19846;SDS011;10084;50.518;8.588;2023-06-14T09:01:26;0.90;;;0.90;;
19846;SDS011;10084;50.518;8.588;2023-06-14T09:03:52;1.20;;;1.10;;
19846;SDS011;10084;50.518;8.588;2023-06-14T09:06:20;1.00;;;0.70;;
19846;SDS011;10084;50.518;8.588;2023-06-14T09:08:48;1.07;;;0.90;;
19846;SDS011;10084;50.518;8.588;2023-06-14T09:11:15;1.00;;;0.90;;
19846;SDS011;10084;50.518;8.588;2023-06-14T09:13:46;1.10;;;1.00;;
19846;SDS011;10084;50.518;8.588;2023-06-14T09:16:15;1.47;;;1.10;;
19846;SDS011;10084;50.518;8.588;2023-06-14T09:21:13;0.97;;;0.87;;
19846;SDS011;10084;50.518;8.588;2023-06-14T09:23:46;1.13;;;1.00;;
19846;SDS011;10084;50.518;8.588;2023-06-14T09:26:13;3.87;;;1.10;;
19846;SDS011;10084;50.518;8.588;2023-06-14T09:28:41;1.07;;;0.97;;
19846;SDS011;10084;50.518;8.588;2023-06-14T09:31:11;1.63;;;1.00;;
19846;SDS011;10084;50.518;8.588;2023-06-14T09:33:38;1.20;;;1.10;;
19846;SDS011;10084;50.518;8.588;2023-06-14T09:36:11;1.30;;;1.13;;
19846;SDS011;10084;50.518;8.588;2023-06-14T09:38:39;1.40;;;1.30;;
19846;SDS011;10084;50.518;8.588;2023-06-14T09:41:05;2.83;;;1.17;;
19846;SDS011;10084;50.518;8.588;2023-06-14T09:43:31;3.23;;;1.00;;
19846;SDS011;10084;50.518;8.588;2023-06-14T09:46:00;1.30;;;1.20;;
19846;SDS011;10084;50.518;8.588;2023-06-14T09:48:28;1.40;;;1.30;;
19846;SDS011;10084;50.518;8.588;2023-06-14T09:50:55;1.40;;;1.30;;
19846;SDS011;10084;50.518;8.588;2023-06-14T09:53:24;2.43;;;1.20;;
19846;SDS011;10084;50.518;8.588;2023-06-14T09:55:53;6.97;;;1.57;;
19846;SDS011;10084;50.518;8.588;2023-06-14T09:58:21;2.87;;;1.40;;
19846;SDS011;10084;50.518;8.588;2023-06-14T10:00:51;1.27;;;1.17;;
19846;SDS011;10084;50.518;8.588;2023-06-14T10:03:20;1.30;;;1.20;;
19846;SDS011;10084;50.518;8.588;2023-06-14T10:05:50;1.50;;;1.40;;
19846;SDS011;10084;50.518;8.588;2023-06-14T10:08:16;2.20;;;1.27;;
19846;SDS011;10084;50.518;8.588;2023-06-14T10:10:45;1.07;;;1.07;;
19846;SDS011;10084;50.518;8.588;2023-06-14T10:13:11;1.07;;;1.00;;
19846;SDS011;10084;50.518;8.588;2023-06-14T10:18:35;2.23;;;1.30;;
19846;SDS011;10084;50.518;8.588;2023-06-14T10:21:22;1.00;;;0.90;;
19846;SDS011;10084;50.518;8.588;2023-06-14T10:24:08;1.20;;;1.00;;
19846;SDS011;10084;50.518;8.588;2023-06-14T10:26:49;0.90;;;0.90;;
19846;SDS011;10084;50.518;8.588;2023-06-14T10:29:19;1.83;;;1.10;;
19846;SDS011;10084;50.518;8.588;2023-06-14T10:31:53;0.90;;;0.87;;
19846;SDS011;10084;50.518;8.588;2023-06-14T10:34:31;5.13;;;1.00;;
19846;SDS011;10084;50.518;8.588;2023-06-14T10:37:01;1.33;;;1.23;;
19846;SDS011;10084;50.518;8.588;2023-06-14T10:39:28;2.00;;;1.00;;
19846;SDS011;10084;50.518;8.588;2023-06-14T10:41:55;0.97;;;0.87;;
19846;SDS011;10084;50.518;8.588;2023-06-14T10:46:53;1.67;;;1.27;;
19846;SDS011;10084;50.518;8.588;2023-06-14T10:49:20;1.20;;;0.90;;
19846;SDS011;10084;50.518;8.588;2023-06-14T10:52:10;2.07;;;0.93;;
19846;SDS011;10084;50.518;8.588;2023-06-14T10:57:27;1.30;;;1.00;;
19846;SDS011;10084;50.518;8.588;2023-06-14T10:59:53;1.23;;;0.80;;
19846;SDS011;10084;50.518;8.588;2023-06-14T11:05:03;0.90;;;0.90;;
19846;SDS011;10084;50.518;8.588;2023-06-14T11:07:43;0.90;;;0.90;;
19846;SDS011;10084;50.518;8.588;2023-06-14T11:10:26;0.93;;;0.93;;
19846;SDS011;10084;50.518;8.588;2023-06-14T11:13:06;0.80;;;0.80;;
19846;SDS011;10084;50.518;8.588;2023-06-14T11:15:34;1.20;;;1.00;;
19846;SDS011;10084;50.518;8.588;2023-06-14T11:18:02;1.67;;;0.93;;
19846;SDS011;10084;50.518;8.588;2023-06-14T11:20:30;2.33;;;0.70;;
19846;SDS011;10084;50.518;8.588;2023-06-14T11:22:57;2.73;;;0.80;;
19846;SDS011;10084;50.518;8.588;2023-06-14T11:25:23;1.20;;;1.10;;
19846;SDS011;10084;50.518;8.588;2023-06-14T11:27:49;0.93;;;0.93;;
19846;SDS011;10084;50.518;8.588;2023-06-14T11:30:16;2.20;;;0.80;;
19846;SDS011;10084;50.518;8.588;2023-06-14T11:32:42;0.97;;;0.93;;
19846;SDS011;10084;50.518;8.588;2023-06-14T11:35:10;0.80;;;0.80;;
19846;SDS011;10084;50.518;8.588;2023-06-14T11:37:36;1.07;;;0.80;;
19846;SDS011;10084;50.518;8.588;2023-06-14T11:40:04;1.10;;;1.00;;
19846;SDS011;10084;50.518;8.588;2023-06-14T11:42:34;4.97;;;1.00;;
19846;SDS011;10084;50.518;8.588;2023-06-14T11:45:02;1.03;;;1.00;;
19846;SDS011;10084;50.518;8.588;2023-06-14T11:47:32;1.73;;;0.90;;
19846;SDS011;10084;50.518;8.588;2023-06-14T11:50:02;1.53;;;0.90;;
19846;SDS011;10084;50.518;8.588;2023-06-14T11:52:29;1.47;;;0.90;;
19846;SDS011;10084;50.518;8.588;2023-06-14T11:54:55;0.80;;;0.80;;
19846;SDS011;10084;50.518;8.588;2023-06-14T11:57:22;0.90;;;0.90;;
19846;SDS011;10084;50.518;8.588;2023-06-14T11:59:48;5.90;;;1.53;;
19846;SDS011;10084;50.518;8.588;2023-06-14T12:02:18;1.10;;;1.00;;
19846;SDS011;10084;50.518;8.588;2023-06-14T12:04:47;2.10;;;1.00;;
19846;SDS011;10084;50.518;8.588;2023-06-14T12:07:14;1.33;;;0.90;;
19846;SDS011;10084;50.518;8.588;2023-06-14T12:09:42;3.10;;;1.40;;
19846;SDS011;10084;50.518;8.588;2023-06-14T12:12:24;1.47;;;1.30;;
19846;SDS011;10084;50.518;8.588;2023-06-14T12:14:51;0.97;;;0.90;;
19846;SDS011;10084;50.518;8.588;2023-06-14T12:17:17;0.90;;;0.90;;
19846;SDS011;10084;50.518;8.588;2023-06-14T12:19:44;1.33;;;1.00;;
19846;SDS011;10084;50.518;8.588;2023-06-14T12:22:11;1.33;;;1.20;;
19846;SDS011;10084;50.518;8.588;2023-06-14T12:24:38;0.90;;;0.90;;
19846;SDS011;10084;50.518;8.588;2023-06-14T12:27:04;1.20;;;1.10;;
19846;SDS011;10084;50.518;8.588;2023-06-14T12:29:31;1.27;;;1.00;;
19846;SDS011;10084;50.518;8.588;2023-06-14T12:31:57;0.83;;;0.83;;
19846;SDS011;10084;50.518;8.588;2023-06-14T12:34:25;0.90;;;0.90;;
19846;SDS011;10084;50.518;8.588;2023-06-14T12:36:52;0.93;;;0.93;;
19846;SDS011;10084;50.518;8.588;2023-06-14T12:39:19;5.73;;;1.30;;
19846;SDS011;10084;50.518;8.588;2023-06-14T12:41:45;1.17;;;1.07;;
19846;SDS011;10084;50.518;8.588;2023-06-14T12:44:13;3.73;;;0.93;;
19846;SDS011;10084;50.518;8.588;2023-06-14T12:46:41;1.07;;;1.00;;
19846;SDS011;10084;50.518;8.588;2023-06-14T12:49:11;1.30;;;1.20;;
19846;SDS011;10084;50.518;8.588;2023-06-14T12:51:38;1.10;;;1.00;;
19846;SDS011;10084;50.518;8.588;2023-06-14T12:54:04;0.90;;;0.90;;
19846;SDS011;10084;50.518;8.588;2023-06-14T12:56:30;1.27;;;1.13;;
19846;SDS011;10084;50.518;8.588;2023-06-14T12:58:56;1.13;;;1.00;;
19846;SDS011;10084;50.518;8.588;2023-06-14T13:01:21;9.00;;;1.37;;
19846;SDS011;10084;50.518;8.588;2023-06-14T13:03:50;1.73;;;1.00;;
19846;SDS011;10084;50.518;8.588;2023-06-14T13:06:20;3.60;;;0.97;;
19846;SDS011;10084;50.518;8.588;2023-06-14T13:08:47;3.53;;;1.17;;
19846;SDS011;10084;50.518;8.588;2023-06-14T13:11:13;0.90;;;0.90;;
19846;SDS011;10084;50.518;8.588;2023-06-14T13:13:39;1.20;;;1.17;;
19846;SDS011;10084;50.518;8.588;2023-06-14T13:16:05;1.80;;;1.00;;
19846;SDS011;10084;50.518;8.588;2023-06-14T13:18:31;1.30;;;1.20;;
19846;SDS011;10084;50.518;8.588;2023-06-14T13:20:56;0.97;;;0.97;;
19846;SDS011;10084;50.518;8.588;2023-06-14T13:23:22;4.33;;;1.07;;
19846;SDS011;10084;50.518;8.588;2023-06-14T13:25:48;1.13;;;1.10;;
19846;SDS011;10084;50.518;8.588;2023-06-14T13:28:16;1.17;;;1.07;;
19846;SDS011;10084;50.518;8.588;2023-06-14T13:30:42;2.97;;;1.13;;
19846;SDS011;10084;50.518;8.588;2023-06-14T13:33:08;2.77;;;1.20;;
19846;SDS011;10084;50.518;8.588;2023-06-14T13:35:33;1.33;;;1.30;;
19846;SDS011;10084;50.518;8.588;2023-06-14T13:38:00;1.83;;;1.20;;
19846;SDS011;10084;50.518;8.588;2023-06-14T13:40:26;1.27;;;1.00;;
19846;SDS011;10084;50.518;8.588;2023-06-14T13:42:51;2.20;;;1.20;;
19846;SDS011;10084;50.518;8.588;2023-06-14T13:45:17;1.30;;;1.20;;
19846;SDS011;10084;50.518;8.588;2023-06-14T13:47:44;1.40;;;1.30;;
19846;SDS011;10084;50.518;8.588;2023-06-14T13:50:10;1.67;;;1.07;;
19846;SDS011;10084;50.518;8.588;2023-06-14T13:52:35;1.30;;;1.20;;
19846;SDS011;10084;50.518;8.588;2023-06-14T13:55:02;0.83;;;0.83;;
19846;SDS011;10084;50.518;8.588;2023-06-14T13:57:31;1.10;;;1.10;;
19846;SDS011;10084;50.518;8.588;2023-06-14T13:59:57;1.30;;;1.20;;
19846;SDS011;10084;50.518;8.588;2023-06-14T14:02:26;0.83;;;0.83;;
19846;SDS011;10084;50.518;8.588;2023-06-14T14:04:54;2.47;;;1.40;;
19846;SDS011;10084;50.518;8.588;2023-06-14T14:07:20;1.03;;;1.00;;
19846;SDS011;10084;50.518;8.588;2023-06-14T14:09:48;1.27;;;1.20;;
19846;SDS011;10084;50.518;8.588;2023-06-14T14:12:13;3.33;;;1.20;;
19846;SDS011;10084;50.518;8.588;2023-06-14T14:14:39;1.43;;;1.20;;
19846;SDS011;10084;50.518;8.588;2023-06-14T14:17:06;2.00;;;0.90;;
19846;SDS011;10084;50.518;8.588;2023-06-14T14:19:32;1.23;;;1.13;;
19846;SDS011;10084;50.518;8.588;2023-06-14T14:21:58;1.10;;;1.10;;
19846;SDS011;10084;50.518;8.588;2023-06-14T14:24:23;1.83;;;1.30;;
19846;SDS011;10084;50.518;8.588;2023-06-14T14:26:51;1.43;;;1.03;;
19846;SDS011;10084;50.518;8.588;2023-06-14T14:29:18;1.53;;;1.43;;
19846;SDS011;10084;50.518;8.588;2023-06-14T14:31:45;3.30;;;1.20;;
19846;SDS011;10084;50.518;8.588;2023-06-14T14:34:10;1.20;;;1.10;;
19846;SDS011;10084;50.518;8.588;2023-06-14T14:36:36;1.30;;;1.20;;
19846;SDS011;10084;50.518;8.588;2023-06-14T14:39:03;1.53;;;1.20;;
19846;SDS011;10084;50.518;8.588;2023-06-14T14:41:29;1.00;;;1.00;;
19846;SDS011;10084;50.518;8.588;2023-06-14T14:43:55;1.23;;;0.90;;
19846;SDS011;10084;50.518;8.588;2023-06-14T14:46:21;1.70;;;1.60;;
19846;SDS011;10084;50.518;8.588;2023-06-14T14:48:46;0.77;;;0.73;;
19846;SDS011;10084;50.518;8.588;2023-06-14T14:51:12;1.10;;;1.10;;
19846;SDS011;10084;50.518;8.588;2023-06-14T14:53:38;0.97;;;0.97;;
19846;SDS011;10084;50.518;8.588;2023-06-14T14:56:04;1.13;;;1.03;;
19846;SDS011;10084;50.518;8.588;2023-06-14T14:58:29;1.07;;;1.00;;
19846;SDS011;10084;50.518;8.588;2023-06-14T15:00:55;1.30;;;1.20;;
19846;SDS011;10084;50.518;8.588;2023-06-14T15:03:21;1.17;;;1.07;;
19846;SDS011;10084;50.518;8.588;2023-06-14T15:05:46;1.07;;;0.93;;